Time;durP1;ratioP1;P1;durP2;ratioP2;P2;SDS_P1;SDS_P2;PMS_P1;PMS_P2;Temp;Humidity;BMP_temperature;BMP_pressure;BME280_temperature;BME280_humidity;BME280_pressure;Samples;Min_cycle;Max_cycle;Signal;HPM_P1;HPM_P2
2022/05/06 00:00:19;;;;;;;9.27;8.38;;;14.70;79.60;;;;;;5054975;28;20100;-64
2022/05/06 00:02:45;;;;;;;10.00;9.00;;;14.70;79.60;;;;;;5054593;28;20516;-63
2022/05/06 00:05:11;;;;;;;12.95;10.48;;;14.70;79.70;;;;;;5055127;28;20531;-65
2022/05/06 00:07:37;;;;;;;12.90;11.52;;;14.60;79.70;;;;;;5056189;28;20629;-62
2022/05/06 00:10:05;;;;;;;12.98;11.63;;;14.60;80.00;;;;;;5054035;28;20652;-64
2022/05/06 00:12:31;;;;;;;13.07;11.70;;;14.60;80.00;;;;;;5056424;28;20040;-65
2022/05/06 00:14:57;;;;;;;15.00;12.75;;;14.60;80.10;;;;;;5055934;28;20091;-64
2022/05/06 00:17:22;;;;;;;15.45;13.32;;;14.60;80.20;;;;;;5054236;28;20025;-64
2022/05/06 00:19:48;;;;;;;15.35;13.18;;;14.60;80.30;;;;;;5055817;28;20029;-64
2022/05/06 00:22:14;;;;;;;18.45;14.93;;;14.50;80.30;;;;;;5056053;28;20560;-64
2022/05/06 00:24:40;;;;;;;16.92;14.88;;;14.50;80.50;;;;;;5054896;28;20063;-64
2022/05/06 00:27:06;;;;;;;16.60;14.13;;;14.40;80.70;;;;;;5060632;28;20059;-64
2022/05/06 00:29:32;;;;;;;18.10;15.15;;;14.40;80.90;;;;;;5056783;28;20056;-64
2022/05/06 00:31:58;;;;;;;16.30;14.57;;;14.40;81.10;;;;;;5055267;28;21073;-64
2022/05/06 00:34:24;;;;;;;17.55;14.80;;;14.30;81.10;;;;;;5055205;28;20024;-65
2022/05/06 00:36:49;;;;;;;16.38;14.13;;;14.30;81.30;;;;;;5055577;28;20037;-64
2022/05/06 00:39:15;;;;;;;16.40;14.52;;;14.20;81.30;;;;;;5055718;28;20037;-64
2022/05/06 00:41:41;;;;;;;16.50;14.60;;;14.20;81.40;;;;;;5056879;28;20040;-64
2022/05/06 00:44:08;;;;;;;15.80;13.90;;;14.10;81.80;;;;;;5059636;28;20112;-64
2022/05/06 00:46:38;;;;;;;15.18;13.25;;;14.10;81.70;;;;;;5057941;28;20451;-64
2022/05/06 00:49:12;;;;;;;17.00;14.25;;;14.00;82.20;;;;;;5058352;28;20040;-64
2022/05/06 00:51:39;;;;;;;15.82;14.13;;;14.00;82.00;;;;;;5060267;28;20029;-64
2022/05/06 00:54:04;;;;;;;16.63;14.35;;;13.90;82.20;;;;;;5060109;28;20028;-64
2022/05/06 00:56:30;;;;;;;16.38;13.90;;;13.90;82.40;;;;;;5059746;28;20090;-65
2022/05/06 00:58:56;;;;;;;15.52;13.85;;;13.90;82.60;;;;;;5059221;28;20040;-64
2022/05/06 01:01:21;;;;;;;16.58;13.43;;;13.80;82.70;;;;;;5062277;28;20032;-64
2022/05/06 01:03:48;;;;;;;14.65;13.07;;;13.80;82.60;;;;;;5058719;28;20059;-64
2022/05/06 01:06:14;;;;;;;15.75;13.15;;;13.80;82.90;;;;;;5060026;28;20041;-64
2022/05/06 01:08:41;;;;;;;14.75;13.15;;;13.80;83.10;;;;;;5059577;28;20033;-65
2022/05/06 01:11:07;;;;;;;18.17;12.93;;;13.80;82.90;;;;;;5056618;28;20036;-65
2022/05/06 01:13:44;;;;;;;16.40;14.07;;;13.70;83.00;;;;;;5058541;28;20520;-64
2022/05/06 01:16:11;;;;;;;14.38;12.85;;;13.70;83.50;;;;;;5056966;28;20037;-65
2022/05/06 01:18:36;;;;;;;14.00;12.50;;;13.70;83.10;;;;;;5056607;28;20413;-64
2022/05/06 01:21:03;;;;;;;15.30;12.57;;;13.70;83.20;;;;;;5055828;28;20040;-65
2022/05/06 01:23:29;;;;;;;16.05;13.60;;;13.70;83.40;;;;;;5057815;28;20612;-64
2022/05/06 01:25:55;;;;;;;16.10;13.45;;;13.70;83.40;;;;;;5056789;28;20126;-64
2022/05/06 01:28:25;;;;;;;13.73;12.30;;;13.70;83.40;;;;;;5056178;28;20044;-64
2022/05/06 01:31:00;;;;;;;16.52;13.48;;;13.70;83.40;;;;;;5055769;28;20111;-64
2022/05/06 01:33:28;;;;;;;14.63;13.10;;;13.70;83.50;;;;;;5056237;28;20025;-65
2022/05/06 01:36:04;;;;;;;15.60;12.88;;;13.70;83.60;;;;;;5056757;28;20094;-64
2022/05/06 01:39:02;;;;;;;14.88;13.30;;;13.70;83.80;;;;;;5057916;28;20032;-65
2022/05/06 01:41:33;;;;;;;15.48;13.15;;;13.80;84.80;;;;;;5034764;28;20037;-64
2022/05/06 01:44:04;;;;;;;14.57;12.82;;;13.70;83.50;;;;;;5054633;28;20043;-65
2022/05/06 01:46:33;;;;;;;13.30;11.82;;;13.70;83.50;;;;;;5057953;28;20028;-64
2022/05/06 01:49:02;;;;;;;14.38;12.52;;;13.70;83.40;;;;;;5053143;28;20130;-63
2022/05/06 01:51:29;;;;;;;14.00;12.38;;;13.70;83.50;;;;;;5057525;28;20025;-65
2022/05/06 01:53:54;;;;;;;15.23;13.30;;;13.80;83.50;;;;;;5054313;28;20032;-62
2022/05/06 01:56:21;;;;;;;14.23;12.73;;;13.70;83.50;;;;;;5057037;28;20598;-65
2022/05/06 01:58:47;;;;;;;14.35;12.18;;;13.70;83.60;;;;;;5055168;28;20040;-64
2022/05/06 02:01:14;;;;;;;14.05;12.55;;;13.80;83.80;;;;;;5055793;28;20032;-65
2022/05/06 02:06:24;;;;;;;14.43;12.93;;;13.80;83.80;;;;;;5056472;28;20091;-65
2022/05/06 02:08:49;;;;;;;14.75;13.05;;;13.80;83.70;;;;;;5056217;28;20036;-64
2022/05/06 02:11:15;;;;;;;14.27;12.77;;;13.80;83.70;;;;;;5056752;28;20041;-65
2022/05/06 02:13:41;;;;;;;16.75;13.40;;;13.90;83.70;;;;;;5057448;28;20036;-65
2022/05/06 02:16:07;;;;;;;16.95;12.68;;;13.90;83.70;;;;;;5053066;28;20234;-64
2022/05/06 02:18:33;;;;;;;14.43;12.68;;;13.80;83.70;;;;;;5058446;28;20307;-64
2022/05/06 02:21:00;;;;;;;15.40;12.88;;;13.90;83.80;;;;;;5055062;28;20032;-64
2022/05/06 02:23:26;;;;;;;14.60;12.90;;;13.90;83.80;;;;;;5057585;28;20039;-65
2022/05/06 02:25:52;;;;;;;16.67;13.45;;;13.90;83.90;;;;;;5054760;28;20043;-64
2022/05/06 02:28:18;;;;;;;15.90;12.88;;;13.90;83.90;;;;;;5055489;28;20024;-65
2022/05/06 02:33:31;;;;;;;15.60;13.75;;;13.80;83.80;;;;;;5055929;28;20095;-63
2022/05/06 02:35:57;;;;;;;16.02;14.32;;;13.80;83.70;;;;;;5056327;28;20078;-65
2022/05/06 02:38:24;;;;;;;16.45;14.13;;;13.80;83.80;;;;;;5057480;28;20039;-65
2022/05/06 02:40:49;;;;;;;16.52;13.75;;;13.80;84.00;;;;;;5056065;28;20024;-64
2022/05/06 02:43:18;;;;;;;16.50;14.27;;;13.80;83.90;;;;;;5051198;28;20055;-65
2022/05/06 02:45:44;;;;;;;16.85;14.50;;;13.80;83.90;;;;;;5054848;28;20029;-65
2022/05/06 02:48:10;;;;;;;16.30;14.18;;;13.90;84.10;;;;;;5056294;28;20136;-65
2022/05/06 02:50:37;;;;;;;18.55;15.38;;;13.80;84.00;;;;;;5054720;28;20524;-65
2022/05/06 02:53:04;;;;;;;18.23;15.45;;;13.80;84.00;;;;;;5055309;28;20390;-65
2022/05/06 02:55:31;;;;;;;17.63;14.68;;;13.80;84.20;;;;;;5055578;28;20267;-64
2022/05/06 02:57:57;;;;;;;19.75;14.60;;;13.80;84.20;;;;;;5055703;28;20056;-62
2022/05/06 03:00:23;;;;;;;17.40;15.07;;;13.80;84.30;;;;;;5054359;28;20068;-65
2022/05/06 03:02:50;;;;;;;17.08;14.63;;;13.80;84.20;;;;;;5055194;28;20036;-64
2022/05/06 03:05:15;;;;;;;18.10;15.32;;;13.80;84.30;;;;;;5053588;28;20028;-65
2022/05/06 03:07:42;;;;;;;17.15;14.77;;;13.80;84.30;;;;;;5054131;28;20056;-64
2022/05/06 03:10:09;;;;;;;19.08;15.90;;;13.90;84.40;;;;;;5055334;28;20048;-64
2022/05/06 03:12:35;;;;;;;19.70;16.65;;;13.80;84.40;;;;;;5054930;28;20033;-65
2022/05/06 03:15:04;;;;;;;18.67;16.33;;;13.90;84.30;;;;;;5054231;28;20086;-64
2022/05/06 03:17:31;;;;;;;18.33;15.50;;;13.80;84.20;;;;;;5053957;28;20041;-65
2022/05/06 03:19:58;;;;;;;20.00;16.15;;;13.90;84.30;;;;;;5053809;28;20028;-64
2022/05/06 03:22:24;;;;;;;18.23;16.25;;;13.80;84.30;;;;;;5054743;28;20040;-64
2022/05/06 03:24:49;;;;;;;18.58;15.85;;;13.80;84.20;;;;;;5057340;28;20028;-64
2022/05/06 03:30:00;;;;;;;19.35;16.10;;;13.80;84.30;;;;;;5055598;28;20528;-65
2022/05/06 03:32:27;;;;;;;19.33;16.48;;;13.80;84.20;;;;;;5055404;28;20044;-64
2022/05/06 03:34:53;;;;;;;20.67;17.42;;;13.80;84.20;;;;;;5055146;28;20063;-65
2022/05/06 03:37:19;;;;;;;20.30;17.08;;;13.90;84.30;;;;;;5057001;28;20565;-65
2022/05/06 03:39:45;;;;;;;19.00;16.92;;;13.90;84.30;;;;;;5055886;28;20033;-65
2022/05/06 03:42:11;;;;;;;19.33;16.30;;;13.90;84.40;;;;;;5057705;28;20493;-65
2022/05/06 03:44:36;;;;;;;21.13;17.48;;;13.90;84.30;;;;;;5056203;28;20036;-65
2022/05/06 03:47:02;;;;;;;20.27;17.50;;;13.90;84.30;;;;;;5054122;28;21785;-64
2022/05/06 03:49:27;;;;;;;21.23;16.95;;;13.90;84.10;;;;;;5053420;28;20513;-65
2022/05/06 03:51:53;;;;;;;21.85;17.33;;;13.90;84.10;;;;;;5055855;28;20551;-65
2022/05/06 03:54:19;;;;;;;21.42;18.13;;;13.90;84.00;;;;;;5057955;28;20056;-65
2022/05/06 03:56:44;;;;;;;22.63;18.17;;;14.00;84.10;;;;;;5056485;28;20032;-65
2022/05/06 03:59:11;;;;;;;21.80;18.20;;;13.90;84.00;;;;;;5054768;28;20047;-65
2022/05/06 04:01:37;;;;;;;21.70;17.55;;;13.90;84.00;;;;;;5056542;28;20379;-65
2022/05/06 04:04:02;;;;;;;21.15;18.38;;;14.00;84.10;;;;;;5053837;28;20540;-65
2022/05/06 04:06:28;;;;;;;19.52;17.42;;;14.00;84.00;;;;;;5055621;28;20040;-65
2022/05/06 04:08:54;;;;;;;24.13;19.50;;;14.00;84.00;;;;;;5054023;28;20033;-64
2022/05/06 04:11:20;;;;;;;21.55;18.80;;;14.00;84.00;;;;;;5051642;28;20042;-65
2022/05/06 04:13:46;;;;;;;27.42;20.30;;;14.00;83.80;;;;;;5052221;28;20037;-63
2022/05/06 04:16:12;;;;;;;23.77;19.52;;;14.00;83.80;;;;;;5054366;28;20860;-65
2022/05/06 04:18:38;;;;;;;25.40;19.98;;;14.00;83.70;;;;;;5052634;28;20090;-64
2022/05/06 04:23:48;;;;;;;22.75;18.58;;;14.00;83.50;;;;;;5055909;28;20031;-65
2022/05/06 04:26:13;;;;;;;23.65;19.02;;;14.00;83.40;;;;;;5056404;28;20359;-65
2022/05/06 04:28:40;;;;;;;23.35;20.35;;;14.00;83.60;;;;;;5051718;28;20505;-66
2022/05/06 04:31:07;;;;;;;24.08;20.15;;;14.00;83.40;;;;;;5052534;28;20033;-64
2022/05/06 04:33:33;;;;;;;23.88;19.67;;;14.00;83.30;;;;;;5055702;28;20040;-64
2022/05/06 04:35:59;;;;;;;22.13;19.17;;;14.00;83.20;;;;;;5057050;28;20029;-66
2022/05/06 04:38:28;;;;;;;24.98;19.75;;;14.00;83.30;;;;;;5054193;28;20112;-65
2022/05/06 04:40:55;;;;;;;25.63;20.33;;;14.00;83.30;;;;;;5055682;28;20029;-65
2022/05/06 04:43:21;;;;;;;22.92;19.75;;;14.00;83.20;;;;;;5055459;28;20032;-64
2022/05/06 04:45:49;;;;;;;24.40;19.83;;;14.10;83.10;;;;;;5055527;28;20501;-65
2022/05/06 04:48:15;;;;;;;23.52;19.52;;;14.00;84.00;;;;;;5054616;28;20047;-65
2022/05/06 04:50:41;;;;;;;24.85;20.30;;;14.10;83.10;;;;;;5056049;28;20040;-65
2022/05/06 04:53:09;;;;;;;27.15;22.02;;;14.10;83.10;;;;;;5055769;28;20064;-65
2022/05/06 04:55:38;;;;;;;32.42;26.00;;;14.10;83.00;;;;;;5055576;28;20075;-67
2022/05/06 04:58:05;;;;;;;27.48;22.02;;;14.10;82.90;;;;;;5055623;28;20124;-66
2022/05/06 05:00:31;;;;;;;24.83;20.90;;;14.20;82.70;;;;;;5052632;28;20037;-65
2022/05/06 05:02:57;;;;;;;26.80;21.30;;;14.20;82.60;;;;;;5055937;28;20036;-65
2022/05/06 05:05:24;;;;;;;25.73;20.83;;;14.20;82.40;;;;;;5053530;28;20397;-65
2022/05/06 05:07:50;;;;;;;24.35;20.50;;;14.20;82.30;;;;;;5055547;28;20567;-65
2022/05/06 05:10:16;;;;;;;25.10;20.35;;;14.20;82.20;;;;;;5056098;28;20044;-65
2022/05/06 05:12:42;;;;;;;25.70;20.88;;;14.20;82.10;;;;;;5052436;28;20032;-65
2022/05/06 05:15:08;;;;;;;23.13;19.27;;;14.20;82.10;;;;;;5056233;28;20445;-65
2022/05/06 05:17:33;;;;;;;22.42;19.75;;;14.10;82.00;;;;;;5055321;28;20090;-65
2022/05/06 05:19:59;;;;;;;26.23;20.10;;;14.10;82.20;;;;;;5055096;28;20029;-66
2022/05/06 05:22:25;;;;;;;24.45;20.48;;;14.10;82.30;;;;;;5054489;28;20048;-65
2022/05/06 05:24:51;;;;;;;23.67;19.02;;;14.10;82.40;;;;;;5056675;28;20024;-66
2022/05/06 05:27:16;;;;;;;25.20;21.63;;;14.00;82.30;;;;;;5056852;28;20042;-65
2022/05/06 05:29:42;;;;;;;24.42;20.08;;;14.00;82.20;;;;;;5059875;28;20111;-65
2022/05/06 05:32:09;;;;;;;25.23;19.75;;;14.00;82.00;;;;;;5059460;28;20068;-65
2022/05/06 05:34:35;;;;;;;24.33;20.00;;;14.00;82.10;;;;;;5057859;28;20047;-65
2022/05/06 05:37:01;;;;;;;23.52;19.98;;;13.90;82.10;;;;;;5057713;28;20040;-64
2022/05/06 05:39:27;;;;;;;23.45;19.10;;;13.90;82.20;;;;;;5058040;28;20025;-64
2022/05/06 05:41:53;;;;;;;22.05;18.63;;;13.90;82.30;;;;;;5060611;28;20033;-65
2022/05/06 05:49:49;;;;;;;24.25;18.98;;;13.90;82.30;;;;;;5058904;28;20052;-65
2022/05/06 05:52:14;;;;;;;25.60;21.23;;;13.90;82.20;;;;;;5059134;28;20041;-65
2022/05/06 05:54:40;;;;;;;24.13;19.88;;;13.80;82.30;;;;;;5057004;28;20044;-65
2022/05/06 05:57:06;;;;;;;23.08;19.67;;;13.90;82.40;;;;;;5058430;28;20390;-65
2022/05/06 05:59:33;;;;;;;23.05;19.38;;;13.80;82.40;;;;;;5057460;28;20045;-66
2022/05/06 06:02:00;;;;;;;23.75;19.40;;;13.80;82.60;;;;;;5058612;28;20036;-66
2022/05/06 06:04:26;;;;;;;24.58;20.33;;;13.80;82.60;;;;;;5057698;28;20078;-65
2022/05/06 06:06:51;;;;;;;24.25;18.95;;;13.90;82.70;;;;;;5055114;28;20040;-65
2022/05/06 06:09:17;;;;;;;21.05;18.80;;;13.90;82.50;;;;;;5055809;28;20032;-66
2022/05/06 06:11:43;;;;;;;22.67;19.08;;;13.90;82.60;;;;;;5057030;28;20024;-65
2022/05/06 06:14:09;;;;;;;21.48;18.75;;;13.80;82.60;;;;;;5057277;28;20033;-66
2022/05/06 06:16:35;;;;;;;22.75;18.33;;;13.90;82.50;;;;;;5058328;28;20091;-65
2022/05/06 06:19:00;;;;;;;25.25;18.38;;;13.90;82.50;;;;;;5059755;28;20041;-66
2022/05/06 06:21:26;;;;;;;20.50;17.25;;;13.90;82.50;;;;;;5058496;28;20509;-66
2022/05/06 06:23:52;;;;;;;24.27;17.45;;;14.00;82.40;;;;;;5060547;28;20449;-66
2022/05/06 06:26:18;;;;;;;21.83;17.60;;;13.90;82.20;;;;;;5060173;28;20489;-66
2022/05/06 06:28:43;;;;;;;20.33;16.98;;;14.00;82.00;;;;;;5058555;28;20036;-66
2022/05/06 06:31:09;;;;;;;22.13;18.00;;;14.00;82.00;;;;;;5064313;28;20037;-65
2022/05/06 06:33:37;;;;;;;20.23;17.42;;;14.00;81.90;;;;;;5055512;28;20025;-66
2022/05/06 06:36:07;;;;;;;20.98;16.48;;;14.00;81.90;;;;;;5058582;28;20033;-65
2022/05/06 06:38:33;;;;;;;21.73;17.17;;;14.00;82.00;;;;;;5056898;28;20071;-65
2022/05/06 06:40:59;;;;;;;19.08;16.65;;;14.00;81.90;;;;;;5059465;28;20029;-66
2022/05/06 06:43:25;;;;;;;22.98;16.40;;;14.00;81.70;;;;;;5058579;28;20036;-66
2022/05/06 06:45:51;;;;;;;19.60;17.48;;;14.10;81.60;;;;;;5059415;28;20036;-65
2022/05/06 06:48:17;;;;;;;20.55;17.05;;;14.10;81.40;;;;;;5059569;28;20071;-66
2022/05/06 06:50:42;;;;;;;22.13;17.15;;;14.10;81.20;;;;;;5056892;28;20445;-65
2022/05/06 06:53:08;;;;;;;19.38;16.17;;;14.10;81.00;;;;;;5058092;28;20477;-66
2022/05/06 06:55:34;;;;;;;19.73;16.58;;;14.10;81.00;;;;;;5056568;28;20033;-64
2022/05/06 06:58:00;;;;;;;19.67;15.35;;;14.10;80.90;;;;;;5060527;28;20047;-66
2022/05/06 07:00:26;;;;;;;22.20;15.35;;;14.10;80.70;;;;;;5058608;28;20067;-65
2022/05/06 07:02:53;;;;;;;20.58;15.75;;;14.10;80.50;;;;;;5058881;28;20040;-66
2022/05/06 07:05:19;;;;;;;19.15;14.50;;;14.10;80.40;;;;;;5057962;28;20029;-66
2022/05/06 07:13:13;;;;;;;18.03;14.63;;;14.10;80.30;;;;;;5058811;28;20051;-66
2022/05/06 07:15:39;;;;;;;18.90;14.30;;;14.10;80.30;;;;;;5064085;28;20028;-66
2022/05/06 07:18:05;;;;;;;19.25;14.55;;;14.10;80.30;;;;;;5058012;28;20469;-66
2022/05/06 07:20:30;;;;;;;19.88;14.63;;;14.10;80.30;;;;;;5056317;28;20037;-63
2022/05/06 07:22:56;;;;;;;18.92;14.65;;;14.20;80.40;;;;;;5063119;28;20028;-66
2022/05/06 07:25:21;;;;;;;16.95;15.13;;;14.20;80.00;;;;;;5054639;28;20047;-66
2022/05/06 07:27:47;;;;;;;17.77;14.20;;;14.20;79.90;;;;;;5055595;28;20128;-66
2022/05/06 07:30:13;;;;;;;22.00;15.23;;;14.20;79.90;;;;;;5063192;28;20053;-67
2022/05/06 07:32:38;;;;;;;18.05;14.70;;;14.20;80.00;;;;;;5056652;28;20029;-65
2022/05/06 07:35:05;;;;;;;16.92;14.10;;;14.30;79.90;;;;;;5056119;28;20286;-66
2022/05/06 07:37:33;;;;;;;21.75;15.18;;;14.30;79.80;;;;;;5056175;28;20544;-66
2022/05/06 07:40:00;;;;;;;19.23;15.57;;;14.20;79.40;;;;;;5058004;28;20048;-64
2022/05/06 07:42:28;;;;;;;17.95;15.43;;;14.20;79.40;;;;;;5059906;28;20414;-66
2022/05/06 07:44:55;;;;;;;19.85;15.60;;;14.30;79.40;;;;;;5056250;28;20481;-67
2022/05/06 07:47:20;;;;;;;17.85;15.95;;;14.30;79.30;;;;;;5056792;28;20258;-65
2022/05/06 07:49:46;;;;;;;21.25;15.48;;;14.30;79.30;;;;;;5054882;28;20033;-65
2022/05/06 07:52:11;;;;;;;18.27;14.90;;;14.30;79.10;;;;;;5054747;28;20063;-66
2022/05/06 07:54:37;;;;;;;19.48;14.73;;;14.30;79.00;;;;;;5054491;28;20532;-66
2022/05/06 07:57:03;;;;;;;16.90;14.35;;;14.30;79.00;;;;;;5061132;28;20037;-66
2022/05/06 07:59:28;;;;;;;16.65;14.05;;;14.30;78.90;;;;;;5056822;28;20055;-66
2022/05/06 08:04:40;;;;;;;18.37;13.30;;;14.30;79.20;;;;;;5057549;28;20082;-66
2022/05/06 08:07:07;;;;;;;14.73;12.52;;;14.30;79.10;;;;;;5056917;28;20151;-66
2022/05/06 08:09:34;;;;;;;14.35;12.85;;;14.30;79.10;;;;;;5055334;28;20035;-65
2022/05/06 08:11:59;;;;;;;15.48;12.82;;;14.30;79.00;;;;;;5055815;28;20093;-67
2022/05/06 08:14:25;;;;;;;16.17;12.95;;;14.30;78.70;;;;;;5057945;28;20032;-65
2022/05/06 08:16:51;;;;;;;15.18;12.95;;;14.40;78.40;;;;;;5057382;28;20258;-66
2022/05/06 08:19:17;;;;;;;14.85;13.15;;;14.40;78.20;;;;;;5056486;28;20493;-66
2022/05/06 08:21:43;;;;;;;14.48;12.63;;;14.40;77.90;;;;;;5059984;28;20036;-66
2022/05/06 08:24:09;;;;;;;16.23;12.90;;;14.40;77.90;;;;;;5058921;28;20039;-67
2022/05/06 08:26:35;;;;;;;20.77;12.70;;;14.30;77.80;;;;;;5056711;28;20437;-65
2022/05/06 08:29:01;;;;;;;16.08;13.15;;;14.30;77.70;;;;;;5057679;28;20032;-66
2022/05/06 08:31:27;;;;;;;15.85;12.77;;;14.30;77.90;;;;;;5056632;28;20035;-67
2022/05/06 08:33:54;;;;;;;19.27;13.60;;;14.30;78.00;;;;;;5057120;28;20398;-67
2022/05/06 08:36:20;;;;;;;16.33;13.57;;;14.40;77.80;;;;;;5056243;28;20033;-66
2022/05/06 08:38:46;;;;;;;18.42;12.90;;;14.30;77.70;;;;;;5056582;28;20393;-66
2022/05/06 08:41:13;;;;;;;17.00;13.40;;;14.40;77.90;;;;;;5057908;28;20562;-66
2022/05/06 08:43:38;;;;;;;17.17;13.43;;;14.40;78.20;;;;;;5057157;28;20478;-66
2022/05/06 08:51:39;;;;;;;14.98;13.18;;;14.60;78.00;;;;;;5054460;28;20059;-67
2022/05/06 08:54:05;;;;;;;15.32;13.23;;;14.60;78.80;;;;;;5059288;28;20056;-66
2022/05/06 08:56:31;;;;;;;16.38;13.50;;;14.70;77.80;;;;;;5055209;28;20460;-66
2022/05/06 08:58:58;;;;;;;16.80;14.50;;;14.70;77.50;;;;;;5058383;28;20036;-68
2022/05/06 09:01:24;;;;;;;15.35;13.23;;;14.80;77.20;;;;;;5057977;28;20067;-67
2022/05/06 09:03:50;;;;;;;15.48;13.02;;;14.80;77.20;;;;;;5060047;28;20043;-67
2022/05/06 09:06:22;;;;;;;17.77;13.43;;;14.80;77.00;;;;;;5062509;28;20037;-67
2022/05/06 09:08:49;;;;;;;15.15;12.65;;;14.90;76.90;;;;;;5060794;28;20056;-66
2022/05/06 09:11:17;;;;;;;15.25;12.80;;;14.90;77.00;;;;;;5059885;28;20040;-67
2022/05/06 09:13:49;;;;;;;16.55;12.88;;;14.90;76.80;;;;;;5066533;28;21072;-67
2022/05/06 09:16:40;;;;;;;14.68;12.35;;;14.90;76.50;;;;;;5061774;28;20059;-67
2022/05/06 09:19:28;;;;;;;15.70;12.13;;;15.00;77.80;;;;;;5059189;28;20039;-67
2022/05/06 09:22:05;;;;;;;17.23;12.75;;;15.00;76.70;;;;;;5062393;28;20112;-67
2022/05/06 09:24:36;;;;;;;15.38;12.13;;;15.10;76.20;;;;;;5061318;28;20025;-67
2022/05/06 09:27:05;;;;;;;15.98;12.57;;;15.10;77.10;;;;;;5061030;28;20137;-67
2022/05/06 09:29:31;;;;;;;14.82;12.40;;;15.10;76.00;;;;;;5060354;28;20066;-67
2022/05/06 09:32:22;;;;;;;13.10;11.73;;;15.20;76.10;;;;;;5060763;28;20517;-67
2022/05/06 09:34:52;;;;;;;13.82;12.15;;;15.20;75.60;;;;;;5058105;28;20088;-67
2022/05/06 09:37:45;;;;;;;17.23;12.82;;;15.10;75.70;;;;;;5059755;28;20583;-67
2022/05/06 09:40:18;;;;;;;14.30;11.77;;;15.20;74.80;;;;;;5060991;28;20529;-67
2022/05/06 09:42:57;;;;;;;15.30;12.10;;;15.20;75.10;;;;;;5060283;28;22444;-67
2022/05/06 09:45:40;;;;;;;13.75;11.88;;;15.20;75.10;;;;;;5056467;28;20052;-67
2022/05/06 09:48:08;;;;;;;13.50;11.77;;;15.20;75.10;;;;;;5060372;28;20534;-67
2022/05/06 09:50:46;;;;;;;20.73;12.15;;;15.20;75.30;;;;;;5059316;28;20043;-67
2022/05/06 09:53:17;;;;;;;15.68;11.73;;;15.20;74.90;;;;;;5059433;28;20044;-67
2022/05/06 09:55:45;;;;;;;17.23;11.32;;;15.20;74.90;;;;;;5060139;28;20028;-67
2022/05/06 09:58:12;;;;;;;12.13;10.80;;;15.20;75.00;;;;;;5059457;28;20405;-65
2022/05/06 10:00:40;;;;;;;12.77;11.05;;;15.20;75.10;;;;;;5058228;28;20032;-67
2022/05/06 10:03:07;;;;;;;17.75;11.93;;;15.20;75.10;;;;;;5061493;28;20505;-67
2022/05/06 10:05:35;;;;;;;13.80;11.30;;;15.20;75.40;;;;;;5060239;28;20033;-67
2022/05/06 10:08:21;;;;;;;13.38;11.27;;;15.30;75.60;;;;;;5061024;28;20120;-67
2022/05/06 10:10:55;;;;;;;14.48;11.45;;;15.30;75.60;;;;;;5058313;28;20082;-68
2022/05/06 10:13:22;;;;;;;13.80;11.30;;;15.30;75.80;;;;;;5059950;28;20063;-68
2022/05/06 10:15:51;;;;;;;12.10;10.60;;;15.30;75.80;;;;;;5058345;28;20037;-67
2022/05/06 10:18:44;;;;;;;12.40;10.90;;;15.30;76.10;;;;;;5057299;28;20464;-67
2022/05/06 10:21:13;;;;;;;12.32;10.65;;;15.40;75.80;;;;;;5061024;28;20032;-67
2022/05/06 10:23:51;;;;;;;13.05;10.88;;;15.40;75.50;;;;;;5060177;28;20112;-67
2022/05/06 10:26:36;;;;;;;11.32;9.95;;;15.40;74.90;;;;;;5061375;28;20035;-67
2022/05/06 10:34:35;;;;;;;12.80;10.77;;;15.30;74.80;;;;;;5059444;28;20047;-67
2022/05/06 10:37:04;;;;;;;14.02;10.82;;;15.40;75.00;;;;;;5061049;28;20128;-66
2022/05/06 10:39:33;;;;;;;12.20;10.90;;;15.30;75.40;;;;;;5061219;28;20048;-67
2022/05/06 10:42:17;;;;;;;12.13;10.25;;;15.30;75.20;;;;;;5060600;28;20033;-67
2022/05/06 10:44:50;;;;;;;12.75;10.10;;;15.30;75.20;;;;;;5059706;28;20027;-67
2022/05/06 10:47:15;;;;;;;11.93;10.40;;;15.30;75.40;;;;;;5056047;28;20039;-66
2022/05/06 10:49:43;;;;;;;12.10;10.40;;;15.20;75.30;;;;;;5059265;28;20032;-67
2022/05/06 10:52:23;;;;;;;14.90;10.77;;;15.30;75.50;;;;;;5061183;28;20120;-67
2022/05/06 10:54:59;;;;;;;12.40;11.02;;;15.30;75.60;;;;;;5043295;28;20029;-67
2022/05/06 10:57:30;;;;;;;16.70;11.65;;;15.30;75.60;;;;;;5061942;28;20048;-66
2022/05/06 11:00:04;;;;;;;12.95;10.23;;;15.30;75.60;;;;;;5059209;28;20028;-67
2022/05/06 11:02:31;;;;;;;13.63;11.20;;;15.30;75.80;;;;;;5074894;28;20036;-67
2022/05/06 11:05:01;;;;;;;11.07;9.45;;;15.40;75.80;;;;;;5059679;28;20174;-66
2022/05/06 11:07:30;;;;;;;13.30;10.15;;;15.40;75.60;;;;;;5057198;28;20545;-67
2022/05/06 11:09:56;;;;;;;12.40;10.30;;;15.40;75.40;;;;;;5059658;28;20544;-66
2022/05/06 11:12:45;;;;;;;11.50;10.07;;;15.50;75.60;;;;;;5060961;28;20135;-67
2022/05/06 11:15:24;;;;;;;13.55;10.77;;;15.50;74.90;;;;;;5058855;28;20087;-68
2022/05/06 11:17:51;;;;;;;12.35;10.48;;;15.50;75.10;;;;;;5055708;28;20060;-66
2022/05/06 11:20:27;;;;;;;12.27;10.63;;;15.50;75.10;;;;;;5058173;28;20044;-67
2022/05/06 11:23:04;;;;;;;12.90;10.73;;;15.60;75.40;;;;;;5057036;28;20037;-67
2022/05/06 11:25:34;;;;;;;12.55;10.30;;;15.60;75.30;;;;;;5058074;28;20397;-68
2022/05/06 11:28:02;;;;;;;12.60;10.32;;;15.60;75.40;;;;;;5058399;28;20037;-68
2022/05/06 11:30:30;;;;;;;11.65;10.25;;;15.70;75.40;;;;;;5057236;28;20070;-67
2022/05/06 11:33:03;;;;;;;13.43;10.93;;;15.60;75.20;;;;;;5056114;28;20037;-67
2022/05/06 11:35:33;;;;;;;14.52;10.50;;;15.70;74.80;;;;;;5061076;28;20161;-67
2022/05/06 11:37:59;;;;;;;15.48;11.48;;;15.80;74.70;;;;;;5058738;28;20041;-67
2022/05/06 11:40:36;;;;;;;11.88;10.60;;;15.70;74.60;;;;;;5059005;28;20033;-67
2022/05/06 11:43:29;;;;;;;12.23;10.30;;;15.80;74.50;;;;;;5057903;28;20421;-67
2022/05/06 11:48:43;;;;;;;12.30;10.13;;;15.80;74.60;;;;;;5057433;28;20425;-67
2022/05/06 11:51:11;;;;;;;11.55;10.35;;;15.80;74.30;;;;;;5058789;28;20066;-67
2022/05/06 11:53:40;;;;;;;11.93;10.15;;;15.90;74.60;;;;;;5057918;28;20039;-67
2022/05/06 11:56:06;;;;;;;14.07;10.77;;;15.90;74.80;;;;;;5058705;28;20033;-68
2022/05/06 11:58:34;;;;;;;13.10;11.38;;;15.90;75.00;;;;;;5058217;28;20383;-67
2022/05/06 12:01:00;;;;;;;11.57;10.38;;;15.90;74.70;;;;;;5058230;28;20073;-67
2022/05/06 12:03:27;;;;;;;12.13;10.68;;;16.00;75.20;;;;;;5057457;28;20041;-67
2022/05/06 12:06:01;;;;;;;12.25;10.30;;;16.10;75.40;;;;;;5055908;28;20032;-67
2022/05/06 12:08:30;;;;;;;13.52;11.55;;;16.20;75.60;;;;;;5058223;28;20040;-67
2022/05/06 12:11:01;;;;;;;13.85;10.85;;;16.20;75.60;;;;;;5055733;28;20123;-67
2022/05/06 12:13:35;;;;;;;12.63;11.32;;;16.30;75.40;;;;;;5059400;28;20115;-68
2022/05/06 12:16:05;;;;;;;12.13;10.70;;;16.40;75.00;;;;;;5058152;28;20032;-67
2022/05/06 12:18:31;;;;;;;12.05;10.73;;;16.40;75.10;;;;;;5057783;28;20033;-68
2022/05/06 12:20:57;;;;;;;12.52;10.98;;;16.50;75.20;;;;;;5058599;28;20033;-67
2022/05/06 12:23:30;;;;;;;12.32;10.90;;;16.60;75.30;;;;;;5058055;28;20035;-68
2022/05/06 12:25:57;;;;;;;13.00;10.68;;;16.70;75.20;;;;;;5056448;28;20032;-67
2022/05/06 12:28:23;;;;;;;14.32;11.23;;;16.70;75.10;;;;;;5057537;28;20037;-67
2022/05/06 12:30:59;;;;;;;13.15;10.98;;;16.80;75.10;;;;;;5056551;28;20032;-67
2022/05/06 12:33:39;;;;;;;12.52;10.68;;;16.80;74.90;;;;;;5056545;28;20032;-67
2022/05/06 12:36:06;;;;;;;12.52;11.18;;;16.90;74.50;;;;;;5057534;28;20063;-67
2022/05/06 12:38:57;;;;;;;14.15;11.38;;;17.00;74.60;;;;;;5056475;28;20048;-67
2022/05/06 12:41:23;;;;;;;12.65;11.35;;;17.00;73.50;;;;;;5055720;28;20043;-67
2022/05/06 12:43:51;;;;;;;15.38;10.70;;;17.00;73.10;;;;;;5057906;28;20025;-68
2022/05/06 12:46:29;;;;;;;11.15;9.90;;;17.10;73.60;;;;;;5055752;28;20110;-68
2022/05/06 12:51:43;;;;;;;11.98;10.13;;;17.10;73.20;;;;;;5054872;28;20066;-66
2022/05/06 12:54:10;;;;;;;11.23;10.10;;;17.10;73.00;;;;;;5058192;28;20464;-67
2022/05/06 12:56:37;;;;;;;11.60;9.93;;;17.10;73.20;;;;;;5056845;28;20035;-67
2022/05/06 12:59:03;;;;;;;11.50;9.93;;;17.20;73.00;;;;;;5056542;28;20033;-67
2022/05/06 13:01:29;;;;;;;13.95;9.25;;;17.20;72.60;;;;;;5059703;28;20565;-68
2022/05/06 13:03:55;;;;;;;11.18;9.30;;;17.20;73.00;;;;;;5055934;28;20124;-68
2022/05/06 13:06:21;;;;;;;11.77;9.75;;;17.20;72.80;;;;;;5059048;28;20033;-68
2022/05/06 13:08:47;;;;;;;10.98;9.35;;;17.30;72.80;;;;;;5058896;28;20055;-68
2022/05/06 13:11:12;;;;;;;10.65;8.88;;;17.30;71.50;;;;;;5057709;28;20505;-68
2022/05/06 13:13:38;;;;;;;9.55;8.25;;;17.40;71.60;;;;;;5055609;28;20025;-68